Pires Coelho — CUPM6 — position and weather

sailwx.info

Track history (hours):
 
Tides and Currents Weather Stations Pressure Air Temp Water Temp Dewpoint Dewpoint Depression Visibility Wind Speed Wind Dir Waves Ship Positions

Pires Coelho

Last reported at 2015-May-25 19:33 UTC. Time now 2015-May-25 19:43 UTC.
Position N 36°48' W 007°50'.

Length 27 m.

Type: Ship. MMSI: 263236000.

Date/timePositionNaut miles runAvg speedWind from/ knotsBaromVisibWave heightAir tempDewpointWater temp
2015-May-25 19:33N 36°48' W 007°50'4 1.9
2015-May-25 17:15N 36°49' W 007°45'2 2.9
2015-May-25 16:33N 36°50' W 007°43'3 2.8
2015-May-25 15:27N 36°52' W 007°40'16 0.4
2015-May-24 01:08N 36°49' W 007°60'2 2.9
2015-May-24 00:33N 36°49' W 007°58'1 0.6
2015-May-23 22:15N 36°49' W 007°59'2 2.7
2015-May-23 21:34N 36°48' W 008°02'3 2.6
2015-May-23 20:33N 36°48' W 008°05'3 2.6
2015-May-23 19:34N 36°47' W 008°08'2 2.0
2015-May-23 18:33N 36°49' W 008°09'3 2.8
2015-May-23 17:34N 36°49' W 008°13'3 2.9
2015-May-23 16:34N 36°49' W 008°16'3 2.8
2015-May-23 15:33N 36°49' W 008°20'2 2.1
2015-May-23 14:30N 36°48' W 008°22'6 2.8
2015-May-23 12:10N 36°48' W 008°14'2 2.9
2015-May-23 11:19N 36°48' W 008°11'2 3.1
2015-May-23 10:33N 36°48' W 008°08'2 2.0
2015-May-23 09:33N 36°50' W 008°06'3 2.9
2015-May-23 08:34N 36°51' W 008°03'4 3.0
2015-May-23 07:20N 36°51' W 007°58'3 2.9
2015-May-23 06:19N 36°52' W 007°54'3 2.9
2015-May-23 05:14N 36°50' W 007°57'2 2.6
2015-May-23 04:33N 36°49' W 007°59'3 2.9
2015-May-23 03:33N 36°48' W 008°03'3 3.0
2015-May-23 02:34N 36°47' W 008°06'0 0.1
2015-May-23 01:34N 36°47' W 008°06'3 3.0
2015-May-23 00:33N 36°48' W 008°03'3 3.0
2015-May-22 23:34N 36°49' W 007°59'2 2.1
2015-May-22 22:27N 36°50' W 007°57'1 1.6
2015-May-22 21:34N 36°50' W 007°58'3 2.9
2015-May-22 20:33N 36°49' W 008°02'3 2.9
2015-May-22 19:34N 36°48' W 008°05'3 3.1
2015-May-22 18:32N 36°48' W 008°09'3 2.9
2015-May-22 17:24N 36°50' W 008°06'3 3.0
2015-May-22 16:33N 36°51' W 008°03'3 3.0
2015-May-22 15:34N 36°51' W 007°59'3 2.9
2015-May-22 14:22N 36°52' W 007°55'11 2.1
2015-May-22 09:21N 36°49' W 008°08'5 2.6
2015-May-22 07:33N 36°51' W 008°03'6 3.0
2015-May-22 05:32N 36°52' W 007°55'  
2015-May-18 20:15N 36°48' W 008°04'2 2.7
2015-May-18 19:21N 36°48' W 008°07'3 2.9
2015-May-18 18:16N 36°48' W 008°11'3 2.9
2015-May-18 17:04N 36°48' W 008°15'2 2.8
2015-May-18 16:27N 36°48' W 008°17'4 2.0
2015-May-18 14:28N 36°48' W 008°22'3 2.8
2015-May-18 13:33N 36°48' W 008°19'3 2.8
2015-May-18 12:33N 36°48' W 008°15'3 2.9
2015-May-18 11:33N 36°48' W 008°12'3 2.9
2015-May-18 10:33N 36°48' W 008°08'1 1.0
2015-May-18 09:33N 36°49' W 008°08'3 2.5
2015-May-18 08:11N 36°51' W 008°04'2 2.9
2015-May-18 07:33N 36°51' W 008°02'3 3.0
2015-May-18 06:31N 36°52' W 007°58'3 2.9
2015-May-18 05:32N 36°52' W 007°54'6 4.6
2015-May-18 04:10N 36°55' W 008°01'6 9.2
2015-May-18 03:33N 36°57' W 008°07'9 9.3
2015-May-18 02:33N 37°01' W 008°18'9 9.1
2015-May-18 01:33N 37°05' W 008°29'4 4.0
2015-May-18 00:31N 37°08' W 008°32'0 0.0
2015-May-17 23:22N 37°08' W 008°32'0 0.0
2015-May-17 22:25N 37°08' W 008°32'0 0.0
2015-May-17 21:32N 37°08' W 008°32'0 0.0
2015-May-17 20:30N 37°08' W 008°32'0 0.0
2015-May-17 19:33N 37°08' W 008°32'0 0.0
2015-May-17 18:32N 37°08' W 008°32'0 0.0
2015-May-17 17:32N 37°08' W 008°32'3 3.4
2015-May-17 16:33N 37°05' W 008°31'10 9.6
2015-May-17 15:33N 36°56' W 008°27'8 7.9
2015-May-17 14:33N 36°48' W 008°24'2 2.2
2015-May-17 13:33N 36°48' W 008°21'3 2.9
2015-May-17 12:33N 36°48' W 008°18'3 2.9
2015-May-17 11:33N 36°48' W 008°14'3 2.9
2015-May-17 10:33N 36°48' W 008°11'1 1.4
2015-May-17 09:33N 36°49' W 008°09'3 2.8
2015-May-17 08:29N 36°50' W 008°06'3 2.8
2015-May-17 07:33N 36°50' W 008°03'3 3.0
2015-May-17 06:31N 36°51' W 007°59'3 2.8
2015-May-17 05:30N 36°52' W 007°55'2 0.4
2015-May-16 23:11N 36°50' W 007°57'1 1.5
2015-May-16 22:32N 36°49' W 007°58'3 2.8
2015-May-16 21:33N 36°49' W 008°01'2 1.6
2015-May-16 20:33N 36°49' W 008°03'3 3.0
2015-May-16 19:33N 36°49' W 007°59'4 4.1
2015-May-16 18:33N 36°51' W 007°54'5 0.2
2015-May-15 21:33N 36°46' W 007°53'  
Track history (hours):
 
Tides and Currents Weather Stations Pressure Air Temp Water Temp Dewpoint Dewpoint Depression Visibility Wind Speed Wind Dir Waves Ship Positions

Pires Coelho

Last reported at 2015-May-25 19:33 UTC. Time now 2015-May-25 19:43 UTC.
Position N 36°48' W 007°50'.

Length 27 m.

Type: Ship. MMSI: 263236000.

Date/timePositionNaut miles runAvg speedWind from/ knotsBaromVisibWave heightAir tempDewpointWater temp
2015-May-25 19:33N 36°48' W 007°50'4 1.9
2015-May-25 17:15N 36°49' W 007°45'2 2.9
2015-May-25 16:33N 36°50' W 007°43'3 2.8
2015-May-25 15:27N 36°52' W 007°40'16 0.4
2015-May-24 01:08N 36°49' W 007°60'2 2.9
2015-May-24 00:33N 36°49' W 007°58'1 0.6
2015-May-23 22:15N 36°49' W 007°59'2 2.7
2015-May-23 21:34N 36°48' W 008°02'3 2.6
2015-May-23 20:33N 36°48' W 008°05'3 2.6
2015-May-23 19:34N 36°47' W 008°08'2 2.0
2015-May-23 18:33N 36°49' W 008°09'3 2.8
2015-May-23 17:34N 36°49' W 008°13'3 2.9
2015-May-23 16:34N 36°49' W 008°16'3 2.8
2015-May-23 15:33N 36°49' W 008°20'2 2.1
2015-May-23 14:30N 36°48' W 008°22'6 2.8
2015-May-23 12:10N 36°48' W 008°14'2 2.9
2015-May-23 11:19N 36°48' W 008°11'2 3.1
2015-May-23 10:33N 36°48' W 008°08'2 2.0
2015-May-23 09:33N 36°50' W 008°06'3 2.9
2015-May-23 08:34N 36°51' W 008°03'4 3.0
2015-May-23 07:20N 36°51' W 007°58'3 2.9
2015-May-23 06:19N 36°52' W 007°54'3 2.9
2015-May-23 05:14N 36°50' W 007°57'2 2.6
2015-May-23 04:33N 36°49' W 007°59'3 2.9
2015-May-23 03:33N 36°48' W 008°03'3 3.0
2015-May-23 02:34N 36°47' W 008°06'0 0.1
2015-May-23 01:34N 36°47' W 008°06'3 3.0
2015-May-23 00:33N 36°48' W 008°03'3 3.0
2015-May-22 23:34N 36°49' W 007°59'2 2.1
2015-May-22 22:27N 36°50' W 007°57'1 1.6
2015-May-22 21:34N 36°50' W 007°58'3 2.9
2015-May-22 20:33N 36°49' W 008°02'3 2.9
2015-May-22 19:34N 36°48' W 008°05'3 3.1
2015-May-22 18:32N 36°48' W 008°09'3 2.9
2015-May-22 17:24N 36°50' W 008°06'3 3.0
2015-May-22 16:33N 36°51' W 008°03'3 3.0
2015-May-22 15:34N 36°51' W 007°59'3 2.9
2015-May-22 14:22N 36°52' W 007°55'11 2.1
2015-May-22 09:21N 36°49' W 008°08'5 2.6
2015-May-22 07:33N 36°51' W 008°03'6 3.0
2015-May-22 05:32N 36°52' W 007°55'  
2015-May-18 20:15N 36°48' W 008°04'2 2.7
2015-May-18 19:21N 36°48' W 008°07'3 2.9
2015-May-18 18:16N 36°48' W 008°11'3 2.9
2015-May-18 17:04N 36°48' W 008°15'2 2.8
2015-May-18 16:27N 36°48' W 008°17'4 2.0
2015-May-18 14:28N 36°48' W 008°22'3 2.8
2015-May-18 13:33N 36°48' W 008°19'3 2.8
2015-May-18 12:33N 36°48' W 008°15'3 2.9
2015-May-18 11:33N 36°48' W 008°12'3 2.9
2015-May-18 10:33N 36°48' W 008°08'1 1.0
2015-May-18 09:33N 36°49' W 008°08'3 2.5
2015-May-18 08:11N 36°51' W 008°04'2 2.9
2015-May-18 07:33N 36°51' W 008°02'3 3.0
2015-May-18 06:31N 36°52' W 007°58'3 2.9
2015-May-18 05:32N 36°52' W 007°54'6 4.6
2015-May-18 04:10N 36°55' W 008°01'6 9.2
2015-May-18 03:33N 36°57' W 008°07'9 9.3
2015-May-18 02:33N 37°01' W 008°18'9 9.1
2015-May-18 01:33N 37°05' W 008°29'4 4.0
2015-May-18 00:31N 37°08' W 008°32'0 0.0
2015-May-17 23:22N 37°08' W 008°32'0 0.0
2015-May-17 22:25N 37°08' W 008°32'0 0.0
2015-May-17 21:32N 37°08' W 008°32'0 0.0
2015-May-17 20:30N 37°08' W 008°32'0 0.0
2015-May-17 19:33N 37°08' W 008°32'0 0.0
2015-May-17 18:32N 37°08' W 008°32'0 0.0
2015-May-17 17:32N 37°08' W 008°32'3 3.4
2015-May-17 16:33N 37°05' W 008°31'10 9.6
2015-May-17 15:33N 36°56' W 008°27'8 7.9
2015-May-17 14:33N 36°48' W 008°24'2 2.2
2015-May-17 13:33N 36°48' W 008°21'3 2.9
2015-May-17 12:33N 36°48' W 008°18'3 2.9
2015-May-17 11:33N 36°48' W 008°14'3 2.9
2015-May-17 10:33N 36°48' W 008°11'1 1.4
2015-May-17 09:33N 36°49' W 008°09'3 2.8
2015-May-17 08:29N 36°50' W 008°06'3 2.8
2015-May-17 07:33N 36°50' W 008°03'3 3.0
2015-May-17 06:31N 36°51' W 007°59'3 2.8
2015-May-17 05:30N 36°52' W 007°55'2 0.4
2015-May-16 23:11N 36°50' W 007°57'1 1.5
2015-May-16 22:32N 36°49' W 007°58'3 2.8
2015-May-16 21:33N 36°49' W 008°01'2 1.6
2015-May-16 20:33N 36°49' W 008°03'3 3.0
2015-May-16 19:33N 36°49' W 007°59'4 4.1
2015-May-16 18:33N 36°51' W 007°54'5 0.2
2015-May-15 21:33N 36°46' W 007°53'  

Dump ship's entire track history